Time;durP1;ratioP1;P1;durP2;ratioP2;P2;SDS_P1;SDS_P2;PMS_P1;PMS_P2;Temp;Humidity;BMP_temperature;BMP_pressure;BME280_temperature;BME280_humidity;BME280_pressure;Samples;Min_cycle;Max_cycle;Signal;HPM_P1;HPM_P2
2022/12/09 00:01:15;;;;;;;12.70;9.00;;;;;10.10;100483.00;;;;5011125;28;20559;-75
2022/12/09 00:03:43;;;;;;;13.02;9.07;;;;;10.10;100477.00;;;;5014531;28;20201;-74
2022/12/09 00:06:15;;;;;;;12.07;8.52;;;;;10.10;100480.00;;;;5009596;28;20217;-75
2022/12/09 00:08:43;;;;;;;11.68;8.48;;;;;10.10;100476.00;;;;5009445;28;20192;-74
2022/12/09 00:11:10;;;;;;;13.15;8.57;;;;;10.10;100483.00;;;;5009164;28;20211;-74
2022/12/09 00:13:38;;;;;;;13.82;9.30;;;;;10.10;100484.00;;;;5008700;28;20209;-74
2022/12/09 00:16:06;;;;;;;12.75;8.60;;;;;10.10;100482.00;;;;5019559;28;20238;-75
2022/12/09 00:18:34;;;;;;;10.57;8.00;;;;;10.10;100472.00;;;;5011878;28;20231;-74
2022/12/09 00:21:14;;;;;;;9.32;6.35;;;;;10.00;100479.00;;;;5016519;28;20734;-75
2022/12/09 00:23:41;;;;;;;9.90;5.82;;;;;10.10;100476.00;;;;5023801;28;20207;-74
2022/12/09 00:26:09;;;;;;;8.77;6.00;;;;;10.00;100476.00;;;;5013203;28;20208;-75
2022/12/09 00:28:36;;;;;;;9.43;5.95;;;;;10.00;100476.00;;;;5020362;28;20671;-75
2022/12/09 00:31:04;;;;;;;9.50;6.53;;;;;10.00;100475.00;;;;5013004;28;20201;-75
2022/12/09 00:33:32;;;;;;;9.07;6.72;;;;;10.00;100484.00;;;;5009521;28;20190;-74
2022/12/09 00:36:05;;;;;;;8.98;6.13;;;;;10.00;100476.00;;;;5008360;28;20235;-74
2022/12/09 00:38:34;;;;;;;9.35;6.53;;;;;10.00;100476.00;;;;5007772;28;20820;-74
2022/12/09 00:41:01;;;;;;;10.40;6.68;;;;;10.00;100479.00;;;;5010715;28;20207;-74
2022/12/09 00:43:28;;;;;;;10.88;6.97;;;;;10.00;100476.00;;;;5015272;28;20204;-74
2022/12/09 00:45:56;;;;;;;11.20;7.57;;;;;10.00;100478.00;;;;5021947;28;20211;-74
2022/12/09 00:48:23;;;;;;;11.23;6.88;;;;;10.00;100476.00;;;;5017303;28;20196;-75
2022/12/09 00:50:51;;;;;;;11.10;7.20;;;;;10.00;100476.00;;;;5021477;28;20704;-75
2022/12/09 00:53:18;;;;;;;11.25;6.80;;;;;10.00;100477.00;;;;5026176;28;20208;-75
2022/12/09 00:55:47;;;;;;;9.32;6.13;;;;;9.90;100478.00;;;;5012118;28;20646;-75
2022/12/09 00:58:15;;;;;;;11.15;6.78;;;;;9.90;100488.00;;;;5008021;28;20564;-75
2022/12/09 01:00:42;;;;;;;9.00;6.55;;;;;9.90;100484.00;;;;5013824;28;20193;-75
2022/12/09 01:03:12;;;;;;;8.60;6.10;;;;;9.90;100479.00;;;;5008990;28;20205;-75
2022/12/09 01:05:40;;;;;;;8.30;5.38;;;;;9.90;100485.00;;;;5008699;28;20711;-75
2022/12/09 01:08:08;;;;;;;7.30;5.22;;;;;9.90;100477.00;;;;5023143;28;20631;-75
2022/12/09 01:10:36;;;;;;;8.50;5.65;;;;;9.90;100481.00;;;;5023582;28;20205;-75
2022/12/09 01:13:05;;;;;;;9.18;6.07;;;;;9.90;100468.00;;;;5018513;28;20217;-75
2022/12/09 01:15:33;;;;;;;8.43;6.05;;;;;9.90;100479.00;;;;5020414;28;20678;-75
2022/12/09 01:18:01;;;;;;;10.73;7.15;;;;;9.90;100475.00;;;;5007880;28;20682;-74
2022/12/09 01:20:28;;;;;;;11.68;6.63;;;;;9.80;100481.00;;;;5009252;28;21132;-75
2022/12/09 01:22:56;;;;;;;8.88;6.40;;;;;9.80;100482.00;;;;5008014;28;20211;-75
2022/12/09 01:25:23;;;;;;;9.82;6.60;;;;;9.80;100489.00;;;;5009834;28;20677;-75
2022/12/09 01:27:50;;;;;;;9.63;6.47;;;;;9.80;100486.00;;;;5008238;28;20207;-75
2022/12/09 01:30:19;;;;;;;8.45;5.78;;;;;9.70;100498.00;;;;5006813;28;20205;-75
2022/12/09 01:32:47;;;;;;;9.57;6.43;;;;;9.70;100490.00;;;;5007580;28;20851;-75
2022/12/09 01:35:14;;;;;;;10.68;6.88;;;;;9.70;100496.00;;;;5007188;28;20203;-75
2022/12/09 01:37:42;;;;;;;15.10;6.80;;;;;9.70;100495.00;;;;5007950;28;20224;-75
2022/12/09 01:40:15;;;;;;;9.75;6.85;;;;;9.60;100489.00;;;;5007140;28;20232;-75
2022/12/09 01:42:43;;;;;;;9.07;6.20;;;;;9.50;100495.00;;;;5007594;28;20660;-75
2022/12/09 01:45:41;;;;;;;10.05;6.25;;;;;9.40;100488.00;;;;5006152;28;20209;-75
2022/12/09 01:48:12;;;;;;;10.77;6.05;;;;;9.40;100490.00;;;;5008535;28;20250;-74
2022/12/09 01:50:43;;;;;;;9.60;5.78;;;;;9.30;100482.00;;;;5007498;28;20189;-75
2022/12/09 01:53:11;;;;;;;8.68;5.63;;;;;9.30;100487.00;;;;5013490;28;20208;-75
2022/12/09 01:55:39;;;;;;;9.65;6.18;;;;;9.20;100488.00;;;;5024310;28;20208;-75
2022/12/09 01:58:07;;;;;;;8.45;5.88;;;;;9.10;100485.00;;;;5010419;28;20193;-74
2022/12/09 02:00:34;;;;;;;10.48;6.53;;;;;9.10;100488.00;;;;5017705;28;20200;-75
2022/12/09 02:03:03;;;;;;;7.95;5.45;;;;;9.00;100485.00;;;;5009185;28;20205;-75
2022/12/09 02:05:31;;;;;;;9.43;6.47;;;;;9.00;100479.00;;;;5013542;28;20205;-75
2022/12/09 02:07:58;;;;;;;9.30;5.13;;;;;8.90;100481.00;;;;5013479;28;20248;-74
2022/12/09 02:10:26;;;;;;;8.88;6.07;;;;;8.80;100471.00;;;;5024583;28;20192;-75
2022/12/09 02:13:04;;;;;;;8.05;5.80;;;;;8.70;100474.00;;;;5010932;28;20193;-74
2022/12/09 02:15:37;;;;;;;8.50;5.78;;;;;8.70;100470.00;;;;5015294;28;20202;-75
2022/12/09 02:18:13;;;;;;;9.45;6.28;;;;;8.60;100479.00;;;;5017812;28;20201;-75
2022/12/09 02:20:46;;;;;;;9.10;6.28;;;;;8.50;100477.00;;;;5021983;28;20207;-75
2022/12/09 02:23:22;;;;;;;9.77;5.75;;;;;8.50;100485.00;;;;5012269;28;22109;-75
2022/12/09 02:25:56;;;;;;;10.30;6.65;;;;;8.40;100488.00;;;;5026081;28;20576;-75
2022/12/09 02:28:40;;;;;;;9.82;5.85;;;;;8.30;100475.00;;;;5022379;28;20197;-75
2022/12/09 02:31:21;;;;;;;9.93;6.38;;;;;8.30;100476.00;;;;5011036;28;20379;-74
2022/12/09 02:34:06;;;;;;;8.98;5.65;;;;;8.20;100477.00;;;;5011470;28;20216;-76
2022/12/09 02:36:40;;;;;;;9.27;6.55;;;;;8.20;100476.00;;;;5011411;28;20737;-76
2022/12/09 02:39:10;;;;;;;9.48;6.28;;;;;8.20;100475.00;;;;5022597;28;20588;-75
2022/12/09 02:41:41;;;;;;;10.70;6.97;;;;;8.10;100467.00;;;;5014031;28;20668;-76
2022/12/09 02:44:13;;;;;;;9.98;6.53;;;;;8.10;100471.00;;;;5009984;28;20205;-76
2022/12/09 02:46:42;;;;;;;11.27;7.00;;;;;8.00;100470.00;;;;5010440;28;20201;-76
2022/12/09 02:49:12;;;;;;;9.13;6.53;;;;;8.00;100469.00;;;;5019889;28;20208;-76
2022/12/09 02:51:41;;;;;;;8.38;5.78;;;;;8.00;100467.00;;;;5023228;28;20192;-76
2022/12/09 02:54:12;;;;;;;10.35;6.43;;;;;7.90;100468.00;;;;5018241;28;20230;-75
2022/12/09 02:56:44;;;;;;;10.38;6.93;;;;;7.90;100471.00;;;;5020725;28;20203;-76
2022/12/09 02:59:12;;;;;;;9.93;6.80;;;;;7.80;100468.00;;;;5016616;28;20225;-76
2022/12/09 03:01:48;;;;;;;9.88;6.30;;;;;7.80;100469.00;;;;5014941;28;20212;-76
2022/12/09 03:04:20;;;;;;;10.70;6.20;;;;;7.80;100469.00;;;;5010131;28;20207;-75
2022/12/09 03:06:52;;;;;;;11.15;6.35;;;;;7.80;100469.00;;;;5010665;28;20217;-75
2022/12/09 03:09:24;;;;;;;11.02;7.25;;;;;7.80;100461.00;;;;5013634;28;20209;-76
2022/12/09 03:11:52;;;;;;;9.35;6.38;;;;;7.80;100464.00;;;;5015027;28;20250;-76
2022/12/09 03:14:25;;;;;;;9.13;6.82;;;;;7.80;100461.00;;;;5008119;28;20205;-76
2022/12/09 03:16:58;;;;;;;10.30;6.72;;;;;7.80;100459.00;;;;5009357;28;20622;-76
2022/12/09 03:19:31;;;;;;;10.15;6.28;;;;;7.80;100454.00;;;;5011341;28;20217;-76
2022/12/09 03:22:01;;;;;;;9.65;6.53;;;;;7.80;100450.00;;;;5015090;28;20677;-76
2022/12/09 03:24:33;;;;;;;11.27;6.82;;;;;7.80;100439.00;;;;5016493;28;20194;-76
2022/12/09 03:27:05;;;;;;;9.60;6.78;;;;;7.80;100440.00;;;;5008494;28;20208;-76
2022/12/09 03:29:37;;;;;;;9.80;6.63;;;;;7.70;100451.00;;;;5025362;28;20201;-76
2022/12/09 03:32:04;;;;;;;9.75;6.28;;;;;7.70;100457.00;;;;5016086;28;20239;-76
2022/12/09 03:34:37;;;;;;;9.95;6.63;;;;;7.70;100451.00;;;;5016753;28;20203;-76
2022/12/09 03:37:07;;;;;;;9.15;6.18;;;;;7.70;100444.00;;;;5029445;28;20228;-76
2022/12/09 03:39:38;;;;;;;9.13;6.28;;;;;7.70;100437.00;;;;5018015;28;20275;-76
2022/12/09 03:42:15;;;;;;;10.30;6.38;;;;;7.60;100437.00;;;;5009836;28;20189;-76
2022/12/09 03:44:49;;;;;;;10.68;6.97;;;;;7.60;100437.00;;;;5009933;28;20197;-76
2022/12/09 03:47:16;;;;;;;9.85;6.88;;;;;7.60;100434.00;;;;5012651;28;20193;-76
2022/12/09 03:49:45;;;;;;;10.13;7.03;;;;;7.60;100433.00;;;;5008215;28;20205;-76
2022/12/09 03:52:19;;;;;;;9.63;6.47;;;;;7.60;100436.00;;;;5009746;28;20201;-75
2022/12/09 03:54:49;;;;;;;9.98;6.15;;;;;7.60;100435.00;;;;5009205;28;20575;-76
2022/12/09 03:57:19;;;;;;;10.32;6.70;;;;;7.60;100434.00;;;;5012087;28;20551;-76
2022/12/09 03:59:52;;;;;;;10.40;6.45;;;;;7.60;100429.00;;;;5008861;28;20578;-76
2022/12/09 04:02:20;;;;;;;12.48;7.43;;;;;7.60;100432.00;;;;5010145;28;20209;-76
2022/12/09 04:04:49;;;;;;;11.40;7.30;;;;;7.60;100429.00;;;;5013312;28;20567;-76
2022/12/09 04:07:16;;;;;;;10.50;6.85;;;;;7.70;100421.00;;;;5009215;28;20239;-76
2022/12/09 04:09:44;;;;;;;10.95;6.78;;;;;7.70;100431.00;;;;5012035;28;20208;-76
2022/12/09 04:12:11;;;;;;;11.30;7.35;;;;;7.70;100428.00;;;;5013649;28;20208;-76
2022/12/09 04:14:39;;;;;;;10.95;7.18;;;;;7.80;100429.00;;;;5008808;28;20324;-76
2022/12/09 04:17:06;;;;;;;11.48;7.07;;;;;7.80;100423.00;;;;5011494;28;20203;-76
2022/12/09 04:19:33;;;;;;;9.63;6.43;;;;;7.80;100427.00;;;;5026347;28;20231;-76
2022/12/09 04:22:02;;;;;;;10.02;6.85;;;;;7.80;100422.00;;;;5009224;28;20216;-76
2022/12/09 04:24:29;;;;;;;11.02;7.30;;;;;7.90;100413.00;;;;5009283;28;20284;-76
2022/12/09 04:26:57;;;;;;;9.40;6.53;;;;;7.90;100424.00;;;;5019796;28;20207;-76
2022/12/09 04:29:24;;;;;;;11.05;6.65;;;;;7.90;100425.00;;;;5009170;28;21042;-76
2022/12/09 04:31:51;;;;;;;10.93;7.85;;;;;7.90;100426.00;;;;5025826;28;20200;-76
2022/12/09 04:34:18;;;;;;;11.63;7.10;;;;;7.90;100425.00;;;;5011217;28;20208;-75
2022/12/09 04:36:46;;;;;;;10.07;6.85;;;;;7.90;100422.00;;;;5015420;28;20229;-76
2022/12/09 04:39:15;;;;;;;10.02;6.70;;;;;7.80;100419.00;;;;5025795;28;20216;-76
2022/12/09 04:41:42;;;;;;;12.20;8.07;;;;;7.90;100414.00;;;;5017789;28;20200;-76
2022/12/09 04:44:09;;;;;;;10.88;7.47;;;;;7.90;100423.00;;;;5027501;28;20192;-76
2022/12/09 04:46:37;;;;;;;12.32;8.23;;;;;7.90;100426.00;;;;5009844;28;20770;-76
2022/12/09 04:49:04;;;;;;;11.07;6.68;;;;;7.90;100422.00;;;;5009290;28;20212;-76
2022/12/09 04:51:32;;;;;;;10.55;7.00;;;;;7.90;100416.00;;;;5017256;28;20231;-76
2022/12/09 04:53:59;;;;;;;11.38;7.65;;;;;7.90;100419.00;;;;5018701;28;20201;-76
2022/12/09 04:56:28;;;;;;;21.42;7.13;;;;;7.90;100429.00;;;;5014545;28;20185;-76
2022/12/09 04:58:55;;;;;;;11.48;6.65;;;;;7.90;100425.00;;;;5010028;28;20200;-76
2022/12/09 05:01:23;;;;;;;12.43;7.80;;;;;7.90;100426.00;;;;5008934;28;20193;-76
2022/12/09 05:03:52;;;;;;;12.75;8.20;;;;;7.90;100429.00;;;;5009289;28;20414;-76
2022/12/09 05:06:21;;;;;;;11.35;7.57;;;;;8.00;100426.00;;;;5005670;28;20197;-76
2022/12/09 05:08:49;;;;;;;12.70;7.68;;;;;8.00;100432.00;;;;5009186;28;20193;-76
2022/12/09 05:11:17;;;;;;;13.05;8.18;;;;;8.00;100431.00;;;;5008582;28;20660;-76
2022/12/09 05:13:46;;;;;;;12.35;7.93;;;;;8.00;100430.00;;;;5020460;28;20312;-76
2022/12/09 05:16:16;;;;;;;10.93;7.35;;;;;8.00;100432.00;;;;5007532;28;20197;-76
2022/12/09 05:18:44;;;;;;;11.98;7.82;;;;;8.10;100431.00;;;;5010226;28;20282;-76
2022/12/09 05:21:13;;;;;;;11.48;7.30;;;;;8.10;100432.00;;;;5015976;28;20714;-76
2022/12/09 05:23:40;;;;;;;12.68;7.78;;;;;8.10;100428.00;;;;5015540;28;20196;-76
2022/12/09 05:26:10;;;;;;;11.77;7.65;;;;;8.10;100431.00;;;;5024110;28;20585;-76
2022/12/09 05:28:38;;;;;;;11.98;7.53;;;;;8.10;100422.00;;;;5016116;28;20204;-76
2022/12/09 05:31:09;;;;;;;11.30;7.18;;;;;8.10;100424.00;;;;5014771;28;20581;-76
2022/12/09 05:33:37;;;;;;;16.17;8.32;;;;;8.10;100417.00;;;;5015439;28;20196;-76
2022/12/09 05:36:04;;;;;;;10.93;7.35;;;;;8.10;100421.00;;;;5008017;28;20228;-76
2022/12/09 05:38:31;;;;;;;12.02;7.78;;;;;8.10;100422.00;;;;5010571;28;20619;-76
2022/12/09 05:41:00;;;;;;;11.00;7.35;;;;;8.10;100415.00;;;;5015436;28;20221;-76
2022/12/09 05:43:27;;;;;;;11.98;7.38;;;;;8.10;100423.00;;;;5015332;28;20212;-76
2022/12/09 05:45:54;;;;;;;12.15;7.30;;;;;8.10;100426.00;;;;5020867;28;20297;-76
2022/12/09 05:48:23;;;;;;;11.40;7.50;;;;;8.10;100426.00;;;;5014809;28;20207;-76
2022/12/09 05:50:57;;;;;;;12.27;8.20;;;;;8.00;100422.00;;;;5019225;28;20201;-76
2022/12/09 05:53:24;;;;;;;11.05;7.63;;;;;8.10;100417.00;;;;5021233;28;20193;-76
2022/12/09 05:55:52;;;;;;;11.13;7.10;;;;;8.00;100422.00;;;;5021150;28;20211;-76
2022/12/09 05:58:19;;;;;;;13.25;8.10;;;;;8.00;100425.00;;;;5026273;28;20203;-76
2022/12/09 06:00:47;;;;;;;11.02;7.55;;;;;8.00;100430.00;;;;5014635;28;20220;-76
2022/12/09 06:03:14;;;;;;;12.15;7.57;;;;;8.00;100425.00;;;;5013068;28;20213;-77
2022/12/09 06:05:43;;;;;;;13.07;8.05;;;;;8.00;100427.00;;;;5014667;28;20575;-76
2022/12/09 06:08:10;;;;;;;13.65;8.05;;;;;8.00;100429.00;;;;5011561;28;20217;-77
2022/12/09 06:10:40;;;;;;;11.18;7.22;;;;;8.00;100428.00;;;;5011679;28;20197;-77
2022/12/09 06:13:07;;;;;;;11.88;7.85;;;;;8.00;100429.00;;;;5016890;28;20208;-76
2022/12/09 06:15:35;;;;;;;12.25;7.35;;;;;8.10;100421.00;;;;5019041;28;20227;-76
2022/12/09 06:18:02;;;;;;;16.08;7.97;;;;;8.10;100419.00;;;;5013813;28;20201;-76
2022/12/09 06:20:30;;;;;;;14.10;8.70;;;;;8.10;100413.00;;;;5016459;28;20221;-77
2022/12/09 06:22:59;;;;;;;12.70;7.93;;;;;8.10;100418.00;;;;5031799;28;20533;-77
2022/12/09 06:25:26;;;;;;;10.48;7.30;;;;;8.20;100425.00;;;;5016690;28;20209;-78
2022/12/09 06:27:53;;;;;;;11.85;7.45;;;;;8.20;100435.00;;;;5029613;28;20203;-77
2022/12/09 06:30:21;;;;;;;13.07;8.13;;;;;8.20;100434.00;;;;5024966;28;20659;-77
2022/12/09 06:32:48;;;;;;;12.70;8.38;;;;;8.20;100431.00;;;;5011107;28;20688;-77
2022/12/09 06:35:15;;;;;;;13.48;8.35;;;;;8.30;100435.00;;;;5016620;28;20614;-77
2022/12/09 06:37:43;;;;;;;10.85;7.68;;;;;8.30;100434.00;;;;5013633;28;20201;-78
2022/12/09 06:40:12;;;;;;;12.90;8.30;;;;;8.30;100424.00;;;;5020762;28;20614;-77
2022/12/09 06:42:39;;;;;;;11.27;7.72;;;;;8.30;100428.00;;;;5019351;28;20197;-77
2022/12/09 06:45:07;;;;;;;13.27;8.98;;;;;8.40;100428.00;;;;5022986;28;20209;-77
2022/12/09 06:47:35;;;;;;;11.32;7.03;;;;;8.40;100430.00;;;;5018340;28;20193;-77
2022/12/09 06:50:02;;;;;;;12.85;7.75;;;;;8.40;100432.00;;;;5015516;28;20212;-77
2022/12/09 06:52:29;;;;;;;12.65;8.35;;;;;8.40;100430.00;;;;5013570;28;20201;-77
2022/12/09 06:54:57;;;;;;;13.82;9.00;;;;;8.40;100433.00;;;;5018076;28;20219;-77
2022/12/09 06:57:25;;;;;;;14.25;9.68;;;;;8.40;100432.00;;;;5014573;28;20220;-77
2022/12/09 06:59:53;;;;;;;17.40;8.98;;;;;8.50;100435.00;;;;5019842;28;20329;-77
2022/12/09 07:02:20;;;;;;;13.48;8.30;;;;;8.50;100437.00;;;;5010703;28;20209;-75
2022/12/09 07:04:52;;;;;;;15.10;9.50;;;;;8.50;100440.00;;;;5012579;28;20209;-77
2022/12/09 07:07:19;;;;;;;12.70;8.48;;;;;8.50;100439.00;;;;5012071;28;20217;-76
2022/12/09 07:09:46;;;;;;;12.43;7.90;;;;;8.60;100438.00;;;;5013194;28;20197;-76
2022/12/09 07:12:14;;;;;;;13.63;8.48;;;;;8.60;100442.00;;;;5027631;28;20805;-76
2022/12/09 07:14:42;;;;;;;13.18;8.35;;;;;8.60;100438.00;;;;5030424;28;20189;-76
2022/12/09 07:17:15;;;;;;;14.48;8.82;;;;;8.50;100448.00;;;;5026056;28;20205;-76
2022/12/09 07:19:42;;;;;;;13.63;9.13;;;;;8.60;100441.00;;;;5018815;28;20212;-76
2022/12/09 07:22:10;;;;;;;14.02;9.20;;;;;8.60;100443.00;;;;5010879;28;20197;-77
2022/12/09 07:24:38;;;;;;;16.05;7.88;;;;;8.60;100456.00;;;;5013745;28;20196;-77
2022/12/09 07:27:06;;;;;;;14.63;8.73;;;;;8.60;100454.00;;;;5015387;28;20264;-77
2022/12/09 07:29:34;;;;;;;12.65;8.73;;;;;8.60;100451.00;;;;5012268;28;20201;-76
2022/12/09 07:32:03;;;;;;;12.25;8.82;;;;;8.60;100451.00;;;;5009881;28;20190;-77
2022/12/09 07:34:31;;;;;;;15.38;9.18;;;;;8.70;100447.00;;;;5010384;28;20208;-77
2022/12/09 07:36:58;;;;;;;14.55;9.65;;;;;8.60;100441.00;;;;5012424;28;20725;-77
2022/12/09 07:39:25;;;;;;;12.20;8.77;;;;;8.70;100447.00;;;;5011284;28;20193;-77
2022/12/09 07:41:55;;;;;;;12.43;8.32;;;;;8.60;100438.00;;;;5016262;28;20220;-77
2022/12/09 07:44:22;;;;;;;13.85;8.65;;;;;8.60;100441.00;;;;5016742;28;20198;-77
2022/12/09 07:46:49;;;;;;;14.23;8.82;;;;;8.70;100435.00;;;;5022144;28;20219;-76
2022/12/09 07:49:18;;;;;;;13.30;8.57;;;;;8.60;100437.00;;;;5015181;28;20197;-77
2022/12/09 07:51:46;;;;;;;13.43;8.70;;;;;8.60;100434.00;;;;5011909;28;20204;-76
2022/12/09 07:54:14;;;;;;;13.35;8.45;;;;;8.60;100439.00;;;;5012576;28;20201;-80
2022/12/09 07:56:42;;;;;;;14.27;8.93;;;;;8.60;100442.00;;;;5013685;28;20571;-77
2022/12/09 07:59:12;;;;;;;11.25;7.25;;;;;8.50;100443.00;;;;5017042;28;20208;-77
2022/12/09 08:01:40;;;;;;;12.40;8.13;;;;;8.50;100438.00;;;;5011388;28;20217;-76
2022/12/09 08:04:08;;;;;;;13.27;9.00;;;;;8.50;100444.00;;;;5016004;28;20201;-76
2022/12/09 08:06:38;;;;;;;14.90;9.73;;;;;8.40;100432.00;;;;5009424;28;20212;-76
2022/12/09 08:09:08;;;;;;;14.77;8.85;;;;;8.40;100435.00;;;;5014456;28;20204;-76
2022/12/09 08:11:35;;;;;;;16.42;9.45;;;;;8.40;100441.00;;;;5021190;28;20196;-77
2022/12/09 08:14:06;;;;;;;14.23;8.98;;;;;8.40;100438.00;;;;5009212;28;20205;-76
2022/12/09 08:16:33;;;;;;;17.70;9.45;;;;;8.30;100441.00;;;;5021250;28;20193;-76
2022/12/09 08:19:00;;;;;;;15.40;9.50;;;;;8.30;100446.00;;;;5017202;28;20212;-76
2022/12/09 08:21:30;;;;;;;16.92;9.88;;;;;8.20;100442.00;;;;5015020;28;20224;-76
2022/12/09 08:24:00;;;;;;;16.60;10.55;;;;;8.20;100440.00;;;;5009149;28;20201;-77
2022/12/09 08:26:30;;;;;;;17.95;10.20;;;;;8.20;100450.00;;;;5010213;28;20200;-77
2022/12/09 08:28:58;;;;;;;17.65;10.82;;;;;8.20;100456.00;;;;5016455;28;20204;-76
2022/12/09 08:31:27;;;;;;;18.20;11.20;;;;;8.10;100447.00;;;;5008704;28;20565;-76
2022/12/09 08:33:54;;;;;;;15.68;9.80;;;;;8.10;100444.00;;;;5018307;28;20196;-76
2022/12/09 08:36:24;;;;;;;18.40;10.65;;;;;8.10;100445.00;;;;5014556;28;20243;-76
2022/12/09 08:38:52;;;;;;;16.60;10.25;;;;;8.10;100434.00;;;;5008857;28;20201;-76
2022/12/09 08:41:33;;;;;;;15.63;10.23;;;;;8.00;100446.00;;;;5017735;28;20220;-76
2022/12/09 08:44:01;;;;;;;19.17;11.20;;;;;8.10;100442.00;;;;5021901;28;20203;-76
2022/12/09 08:46:29;;;;;;;16.25;10.10;;;;;8.00;100442.00;;;;5018701;28;20201;-77
2022/12/09 08:48:56;;;;;;;17.60;10.52;;;;;8.00;100437.00;;;;5020957;28;20201;-77
2022/12/09 08:51:23;;;;;;;14.63;9.40;;;;;8.00;100434.00;;;;5005187;28;20204;-78
2022/12/09 08:53:52;;;;;;;32.33;20.27;;;;;8.00;100442.00;;;;5011358;28;20845;-77
2022/12/09 08:56:21;;;;;;;25.60;14.75;;;;;8.10;100443.00;;;;5011655;28;20460;-76
2022/12/09 08:58:48;;;;;;;19.23;12.00;;;;;8.10;100441.00;;;;5009201;28;20209;-77
2022/12/09 09:01:17;;;;;;;17.88;11.52;;;;;8.10;100448.00;;;;5014703;28;20227;-76
2022/12/09 09:03:45;;;;;;;20.15;12.10;;;;;8.10;100448.00;;;;5013412;28;20197;-77
2022/12/09 09:06:13;;;;;;;18.70;11.30;;;;;8.10;100449.00;;;;5021238;28;20196;-76
2022/12/09 09:08:40;;;;;;;19.30;12.52;;;;;8.20;100451.00;;;;5008984;28;20223;-76
2022/12/09 09:11:12;;;;;;;16.83;11.38;;;;;8.10;100461.00;;;;5012637;28;20229;-77
2022/12/09 09:13:42;;;;;;;17.23;11.30;;;;;8.20;100459.00;;;;5019015;28;20196;-76
2022/12/09 09:16:11;;;;;;;18.55;10.93;;;;;8.20;100463.00;;;;5013195;28;20605;-77
2022/12/09 09:18:39;;;;;;;18.67;11.40;;;;;8.20;100460.00;;;;5011216;28;20216;-77
2022/12/09 09:21:07;;;;;;;18.95;11.30;;;;;8.20;100465.00;;;;5010720;28;20252;-77
2022/12/09 09:23:35;;;;;;;22.02;11.98;;;;;8.30;100458.00;;;;5011231;28;20212;-77
2022/12/09 09:26:02;;;;;;;18.08;11.45;;;;;8.30;100462.00;;;;5020783;28;20226;-77
2022/12/09 09:28:29;;;;;;;18.83;11.77;;;;;8.40;100460.00;;;;5015503;28;20196;-76
2022/12/09 09:31:02;;;;;;;20.10;11.07;;;;;8.40;100466.00;;;;5021399;28;20204;-77
2022/12/09 09:33:30;;;;;;;17.20;11.65;;;;;8.50;100468.00;;;;5017679;28;20193;-76
2022/12/09 09:35:57;;;;;;;18.83;11.82;;;;;8.50;100468.00;;;;5023518;28;20238;-77
2022/12/09 09:38:25;;;;;;;20.15;12.32;;;;;8.60;100475.00;;;;5031491;28;20211;-76
2022/12/09 09:40:53;;;;;;;18.77;11.80;;;;;8.60;100471.00;;;;5009114;28;20411;-76
2022/12/09 09:43:23;;;;;;;18.77;11.43;;;;;8.70;100470.00;;;;5026563;28;20701;-77
2022/12/09 09:45:51;;;;;;;17.77;10.77;;;;;8.70;100471.00;;;;5025053;28;20582;-77
2022/12/09 09:48:23;;;;;;;18.25;11.30;;;;;8.70;100481.00;;;;5013585;28;20655;-77
2022/12/09 09:50:56;;;;;;;19.95;12.35;;;;;8.80;100481.00;;;;5012423;28;20212;-76
2022/12/09 09:53:29;;;;;;;20.50;11.98;;;;;8.80;100473.00;;;;5007078;28;20944;-77
2022/12/09 09:56:00;;;;;;;17.42;10.18;;;;;8.90;100479.00;;;;5019114;28;20266;-77
2022/12/09 09:58:37;;;;;;;18.67;10.93;;;;;8.90;100476.00;;;;5023862;28;20200;-77
2022/12/09 10:01:09;;;;;;;18.48;10.48;;;;;8.90;100469.00;;;;5008128;28;20590;-77
2022/12/09 10:03:49;;;;;;;20.60;11.52;;;;;8.90;100476.00;;;;5014506;28;20657;-76
2022/12/09 10:06:29;;;;;;;22.60;11.35;;;;;9.00;100475.00;;;;5019636;28;20204;-77
2022/12/09 10:09:03;;;;;;;19.83;11.20;;;;;9.00;100471.00;;;;5010453;28;20197;-76
2022/12/09 10:11:37;;;;;;;18.27;11.02;;;;;9.10;100475.00;;;;5014860;28;20207;-76
2022/12/09 10:14:14;;;;;;;16.90;10.68;;;;;9.10;100470.00;;;;5011387;28;20204;-76
2022/12/09 10:16:44;;;;;;;18.63;10.77;;;;;9.20;100472.00;;;;5014561;28;21880;-75
2022/12/09 10:19:24;;;;;;;17.98;10.68;;;;;9.20;100468.00;;;;5014750;28;20207;-75
2022/12/09 10:21:53;;;;;;;18.15;10.23;;;;;9.30;100470.00;;;;5022104;28;20228;-75
2022/12/09 10:24:25;;;;;;;18.05;10.60;;;;;9.30;100467.00;;;;5016573;28;20208;-76
2022/12/09 10:27:01;;;;;;;17.00;10.00;;;;;9.40;100461.00;;;;5020228;28;20204;-75
2022/12/09 10:29:46;;;;;;;17.58;10.88;;;;;9.30;100457.00;;;;5012714;28;20197;-75
2022/12/09 10:32:16;;;;;;;15.73;9.95;;;;;9.50;100466.00;;;;5029146;28;20651;-75
2022/12/09 10:34:45;;;;;;;15.43;10.25;;;;;9.50;100457.00;;;;5015266;28;21052;-75
2022/12/09 10:37:25;;;;;;;15.75;10.25;;;;;9.50;100460.00;;;;5018362;28;20224;-75
2022/12/09 10:39:58;;;;;;;15.88;9.82;;;;;9.50;100449.00;;;;5010832;28;20200;-75
2022/12/09 10:45:12;;;;;;;16.52;9.82;;;;;9.70;100461.00;;;;5020144;28;20278;-75
2022/12/09 10:47:39;;;;;;;16.48;11.00;;;;;9.70;100463.00;;;;5011780;28;20670;-75
2022/12/09 10:50:23;;;;;;;14.80;9.18;;;;;9.70;100456.00;;;;5014595;28;20664;-75
2022/12/09 10:52:50;;;;;;;18.80;9.85;;;;;9.80;100457.00;;;;5012888;28;20205;-75
2022/12/09 10:55:27;;;;;;;16.10;10.05;;;;;9.80;100459.00;;;;5010414;28;20656;-75
2022/12/09 10:58:11;;;;;;;18.05;10.73;;;;;9.80;100456.00;;;;5014236;28;20200;-75
2022/12/09 11:00:38;;;;;;;17.10;10.68;;;;;9.90;100454.00;;;;5014216;28;20995;-75
2022/12/09 11:03:26;;;;;;;16.90;9.98;;;;;9.80;100462.00;;;;5012804;28;20737;-75
2022/12/09 11:06:02;;;;;;;15.10;9.82;;;;;9.90;100456.00;;;;5032264;28;20204;-76
2022/12/09 11:08:30;;;;;;;15.98;9.73;;;;;9.90;100460.00;;;;5016119;28;20733;-75
2022/12/09 11:10:57;;;;;;;18.85;11.13;;;;;9.90;100461.00;;;;5027772;28;20218;-75
2022/12/09 11:13:38;;;;;;;19.08;10.85;;;;;9.90;100456.00;;;;5016019;28;20201;-75
2022/12/09 11:16:06;;;;;;;17.33;10.88;;;;;10.00;100450.00;;;;5023596;28;20197;-76
2022/12/09 11:18:42;;;;;;;18.48;10.95;;;;;9.90;100457.00;;;;5010199;28;20227;-76
2022/12/09 11:21:31;;;;;;;20.85;11.75;;;;;9.90;100458.00;;;;5018257;28;20216;-76
2022/12/09 11:23:58;;;;;;;16.92;10.80;;;;;10.00;100449.00;;;;5019498;28;20223;-75
2022/12/09 11:26:33;;;;;;;21.83;12.15;;;;;10.00;100440.00;;;;5030875;28;20215;-75
2022/12/09 11:29:04;;;;;;;17.67;10.77;;;;;10.00;100446.00;;;;5024723;28;20243;-75
2022/12/09 11:31:37;;;;;;;18.77;11.57;;;;;10.10;100433.00;;;;5013777;28;20292;-75
2022/12/09 11:34:15;;;;;;;18.35;10.57;;;;;10.10;100429.00;;;;5034614;28;20208;-75
2022/12/09 11:36:48;;;;;;;19.92;11.18;;;;;10.20;100434.00;;;;5025371;28;20289;-76
2022/12/09 11:39:25;;;;;;;17.58;10.10;;;;;10.20;100432.00;;;;5029345;28;20270;-76
2022/12/09 11:44:41;;;;;;;16.27;9.82;;;;;10.30;100434.00;;;;5012291;28;20204;-75
2022/12/09 11:47:12;;;;;;;17.52;9.88;;;;;10.30;100440.00;;;;5019822;28;20742;-75
2022/12/09 11:49:50;;;;;;;14.63;9.38;;;;;10.30;100438.00;;;;5028827;28;20188;-76
2022/12/09 11:52:28;;;;;;;17.17;10.73;;;;;10.30;100446.00;;;;5005986;28;20209;-76
2022/12/09 11:55:05;;;;;;;15.38;9.18;;;;;10.30;100446.00;;;;5007543;28;20200;-75
2022/12/09 11:57:37;;;;;;;15.13;9.95;;;;;10.30;100444.00;;;;5008587;28;20201;-76
2022/12/09 12:00:16;;;;;;;17.13;11.25;;;;;10.40;100438.00;;;;5010957;28;20205;-76
2022/12/09 12:02:46;;;;;;;15.68;9.52;;;;;10.40;100438.00;;;;5009534;28;20461;-75
2022/12/09 12:05:23;;;;;;;17.83;11.35;;;;;10.50;100436.00;;;;5017212;28;20211;-75
2022/12/09 12:08:02;;;;;;;17.92;10.50;;;;;10.50;100440.00;;;;5026851;28;20216;-75
2022/12/09 12:10:35;;;;;;;15.93;10.38;;;;;10.70;100442.00;;;;5022594;28;20203;-76
2022/12/09 12:13:09;;;;;;;18.30;10.77;;;;;10.70;100442.00;;;;5009873;28;20219;-75
2022/12/09 12:15:48;;;;;;;15.98;10.75;;;;;10.80;100445.00;;;;5013119;28;20203;-75
2022/12/09 12:18:19;;;;;;;16.33;10.30;;;;;10.80;100445.00;;;;5018542;28;20210;-75
2022/12/09 12:21:06;;;;;;;16.17;10.95;;;;;10.90;100451.00;;;;5018208;28;20204;-75
2022/12/09 12:23:51;;;;;;;14.35;9.40;;;;;10.80;100447.00;;;;5015555;28;20200;-75
2022/12/09 12:26:23;;;;;;;15.50;9.73;;;;;10.90;100441.00;;;;5016053;28;20192;-75